Phuket, Thailand

7:56 PM ICT on July 28, 2016 (GMT +0700)
Phuket International | | Change Station

Elev 30 ft 8.11 °N, 98.32 °E | Updated 26 minutes ago

Mostly Cloudy
Mostly Cloudy
77 °F
Feels Like 77 °F
N
0
Wind Variable Wind from North

Today
High -- | Low -- °F
--% Chance of Precip.
Yesterday
High -- | Low -- °F
Precip. -- in
Pressure 29.83 in
Visibility 4.3 miles
Clouds Few 1800 ft
Mostly Cloudy 10000 ft
Dew Point 73 °F
Humidity 89%
Rainfall 0.00 in
Snow Depth Not available.
6:18 AM 6:47 PM
Waning Crescent, 32% visible
METAR VTSP 281230Z 00000KT 7000 FEW018 BKN100 25/23 Q1010 A2984 NOSIG
Pressure 29.83 in
Visibility 4.3 miles
Clouds Few 1800 ft
Mostly Cloudy 10000 ft
Dew Point 73 °F
Humidity 89%
Rainfall 0.00 in
Snow Depth Not available.
6:18 AM 6:47 PM
Waning Crescent, 32% visible
METAR VTSP 281230Z 00000KT 7000 FEW018 BKN100 25/23 Q1010 A2984 NOSIG

10-Day Weather Forecast

No radar image for this location.
×

Almanac

Astronomy

Jul. 28, 2016 Rise Set
Actual Time
Civil Twilight
Nautical Twilight
Astronomical Twilight
Moon
Length of Visible Light
Length of Day
Tomorrow will be .
, % of the Moon is Illuminated

Today's Extremes

Country Highs Country Lows

Community

WunderPhotos

Upload Photos

1,928,101 photos uploaded!

WunderBlog® & News

Nearby

Air Quality

  Air Quality AQ Index Pollutant
Not available.

Snow Depth

Station Depth Elevation

Earthquake Activity

City Distance Mag. Time & Date
Minimum magnitude displayed is 2.5.

Coastal Water Temperatures

Place Temperature

Stations

Nearby Weather Stations

Station Location Temp. Windchill Dew Point Humidity Wind Precip. Elev Updated Type